createdAt,value
2017-12-20T00:01:22.035Z,13.57
2017-12-20T00:03:49.776Z,13.73
2017-12-20T00:06:17.293Z,13.25
2017-12-20T00:08:44.814Z,14.40
2017-12-20T00:11:12.578Z,13.80
2017-12-20T00:13:40.146Z,13.38
2017-12-20T00:16:07.656Z,12.27
2017-12-20T00:18:35.564Z,13.77
2017-12-20T00:21:03.346Z,13.32
2017-12-20T00:23:30.868Z,12.73
2017-12-20T00:25:58.433Z,12.05
2017-12-20T00:28:25.944Z,13.38
2017-12-20T00:30:53.454Z,13.15
2017-12-20T00:33:21.212Z,11.95
2017-12-20T00:35:48.729Z,11.68
2017-12-20T00:38:16.241Z,11.77
2017-12-20T00:40:43.899Z,12.27
2017-12-20T00:43:11.429Z,11.18
2017-12-20T00:45:38.941Z,11.35
2017-12-20T00:48:06.687Z,11.18
2017-12-20T00:50:34.243Z,10.88
2017-12-20T00:53:01.747Z,11.63
2017-12-20T00:55:29.769Z,11.23
2017-12-20T00:57:57.334Z,12.02
2017-12-20T01:00:24.898Z,11.15
2017-12-20T01:02:52.831Z,12.43
2017-12-20T01:05:20.620Z,10.63
2017-12-20T01:07:48.181Z,11.07
2017-12-20T01:10:15.718Z,9.60
2017-12-20T01:12:43.226Z,10.90
2017-12-20T01:15:10.977Z,9.35
2017-12-20T01:17:38.509Z,10.07
2017-12-20T01:20:06.045Z,9.43
2017-12-20T01:22:33.859Z,9.13
2017-12-20T01:25:01.573Z,9.48
2017-12-20T01:27:29.387Z,9.20
2017-12-20T01:29:57.275Z,10.45
2017-12-20T01:32:25.125Z,10.77
2017-12-20T01:34:52.872Z,9.13
2017-12-20T01:37:20.376Z,8.43
2017-12-20T01:39:48.204Z,8.55
2017-12-20T01:42:15.966Z,8.93
2017-12-20T01:44:43.839Z,8.90
2017-12-20T01:47:11.943Z,10.18
2017-12-20T01:49:40.882Z,9.30
2017-12-20T01:52:08.852Z,9.10
2017-12-20T01:54:36.638Z,10.27
2017-12-20T01:57:04.398Z,8.40
2017-12-20T01:59:31.902Z,9.02
2017-12-20T02:01:59.473Z,7.93
2017-12-20T02:04:27.038Z,8.10
2017-12-20T02:06:54.755Z,8.75
2017-12-20T02:09:23.005Z,8.70
2017-12-20T02:11:50.780Z,9.55
2017-12-20T02:14:18.640Z,9.65
2017-12-20T02:16:46.636Z,10.38
2017-12-20T02:19:14.249Z,9.15
2017-12-20T02:21:42.509Z,9.88
2017-12-20T02:24:10.721Z,8.77
2017-12-20T02:26:38.589Z,8.75
2017-12-20T02:29:06.560Z,9.32
2017-12-20T02:31:34.602Z,10.55
2017-12-20T02:34:02.286Z,8.55
2017-12-20T02:36:30.193Z,9.93
2017-12-20T02:38:57.800Z,10.48
2017-12-20T02:41:25.403Z,9.68
2017-12-20T02:43:53.372Z,8.95
2017-12-20T02:46:21.225Z,10.15
2017-12-20T02:48:49.190Z,10.88
2017-12-20T02:51:16.722Z,10.25
2017-12-20T02:53:44.588Z,10.23
2017-12-20T02:56:12.094Z,8.73
2017-12-20T02:58:39.605Z,11.00
2017-12-20T03:01:07.163Z,11.27
2017-12-20T03:03:34.674Z,11.85
2017-12-20T03:06:02.185Z,12.23
2017-12-20T03:08:29.913Z,10.90
2017-12-20T03:10:57.425Z,10.85
2017-12-20T03:13:24.941Z,12.50
2017-12-20T03:15:52.622Z,11.95
2017-12-20T03:18:20.174Z,12.93
2017-12-20T03:20:47.681Z,14.48
2017-12-20T03:23:15.229Z,12.68
2017-12-20T03:25:42.754Z,11.35
2017-12-20T03:28:10.263Z,12.50
2017-12-20T03:30:37.834Z,12.55
2017-12-20T03:33:05.352Z,11.73
2017-12-20T03:35:32.861Z,12.73
2017-12-20T03:38:00.754Z,11.80
2017-12-20T03:40:28.321Z,10.73
2017-12-20T03:42:55.861Z,12.23
2017-12-20T03:45:23.739Z,11.57
2017-12-20T03:47:51.246Z,13.75
2017-12-20T03:50:18.776Z,12.02
2017-12-20T03:52:46.622Z,11.93
2017-12-20T03:55:14.197Z,13.25
2017-12-20T03:57:41.747Z,12.13
2017-12-20T04:00:09.510Z,12.60
2017-12-20T04:02:37.023Z,9.55
2017-12-20T04:05:04.529Z,11.60
2017-12-20T04:07:32.461Z,11.05
2017-12-20T04:09:59.977Z,12.35
2017-12-20T04:12:27.486Z,12.20
2017-12-20T04:14:55.064Z,12.13
2017-12-20T04:17:22.577Z,11.93
2017-12-20T04:19:50.093Z,11.30
2017-12-20T04:22:17.917Z,12.00
2017-12-20T04:24:45.438Z,11.95
2017-12-20T04:27:12.958Z,12.40
2017-12-20T04:29:40.624Z,10.82
2017-12-20T04:32:08.136Z,12.35
2017-12-20T04:34:35.650Z,11.07
2017-12-20T04:37:03.610Z,11.98
2017-12-20T04:39:31.116Z,11.15
2017-12-20T04:42:01.706Z,11.00
2017-12-20T04:44:29.542Z,11.20
2017-12-20T04:46:57.049Z,12.60
2017-12-20T04:49:24.557Z,11.25
2017-12-20T04:51:52.099Z,10.50
2017-12-20T04:54:19.607Z,10.70
2017-12-20T04:56:47.151Z,10.35
2017-12-20T04:59:14.702Z,12.32
2017-12-20T05:01:42.372Z,11.07
2017-12-20T05:04:09.931Z,12.37
2017-12-20T05:06:37.493Z,10.25
2017-12-20T05:09:04.997Z,11.23
2017-12-20T05:11:32.515Z,10.63
2017-12-20T05:14:00.372Z,11.07
2017-12-20T05:16:28.525Z,11.12
2017-12-20T05:18:56.033Z,10.90
2017-12-20T05:21:23.613Z,11.80
2017-12-20T05:23:51.125Z,11.60
2017-12-20T05:26:18.685Z,11.20
2017-12-20T05:28:46.529Z,10.77
2017-12-20T05:31:14.046Z,11.00
2017-12-20T05:33:41.566Z,11.98
2017-12-20T05:36:09.326Z,11.90
2017-12-20T05:38:36.887Z,11.57
2017-12-20T05:41:04.445Z,11.90
2017-12-20T05:43:32.253Z,11.70
2017-12-20T05:45:59.781Z,12.37
2017-12-20T05:48:27.327Z,13.10
2017-12-20T05:50:55.246Z,11.35
2017-12-20T05:53:22.750Z,12.15
2017-12-20T05:55:50.259Z,11.32
2017-12-20T05:58:17.974Z,10.95
2017-12-20T06:00:45.532Z,10.30
2017-12-20T06:03:13.040Z,9.75
2017-12-20T06:05:41.526Z,12.00
2017-12-20T06:08:09.037Z,9.52
2017-12-20T06:10:37.001Z,11.57
2017-12-20T06:13:04.760Z,10.68
2017-12-20T06:15:32.322Z,11.30
2017-12-20T06:17:59.826Z,10.90
2017-12-20T06:20:27.643Z,12.02
2017-12-20T06:22:55.348Z,11.80
2017-12-20T06:25:22.877Z,10.90
2017-12-20T06:27:50.731Z,13.10
2017-12-20T06:30:18.241Z,11.80
2017-12-20T06:32:45.754Z,11.85
2017-12-20T06:35:13.713Z,13.00
2017-12-20T06:37:41.397Z,11.55
2017-12-20T06:40:08.935Z,11.12
2017-12-20T06:42:36.673Z,10.98
2017-12-20T06:45:04.178Z,13.13
2017-12-20T06:47:31.714Z,11.65
2017-12-20T06:49:59.478Z,10.55
2017-12-20T06:52:26.987Z,11.15
2017-12-20T06:54:54.497Z,11.50
2017-12-20T06:57:22.237Z,11.63
2017-12-20T06:59:49.751Z,12.37
2017-12-20T07:02:17.266Z,14.00
2017-12-20T07:04:45.242Z,12.27
2017-12-20T07:07:12.754Z,11.38
2017-12-20T07:09:40.279Z,12.50
2017-12-20T07:12:07.855Z,12.30
2017-12-20T07:14:35.390Z,11.75
2017-12-20T07:17:02.937Z,12.30
2017-12-20T07:19:31.950Z,10.88
2017-12-20T07:21:59.510Z,11.50
2017-12-20T07:24:27.047Z,9.77
2017-12-20T07:26:54.707Z,9.93
2017-12-20T07:29:22.213Z,10.00
2017-12-20T07:31:49.733Z,11.98
2017-12-20T07:34:18.642Z,10.90
2017-12-20T07:36:46.193Z,11.45
2017-12-20T07:39:13.731Z,10.45
2017-12-20T07:44:31.607Z,11.32
2017-12-20T07:46:59.129Z,10.45
2017-12-20T07:49:26.644Z,11.25
2017-12-20T07:51:54.259Z,10.20
2017-12-20T07:54:21.765Z,10.75
2017-12-20T07:56:49.277Z,12.02
2017-12-20T07:59:17.124Z,11.02
2017-12-20T08:01:44.628Z,9.77
2017-12-20T08:04:12.214Z,11.98
2017-12-20T08:06:40.107Z,11.05
2017-12-20T08:09:07.613Z,11.35
2017-12-20T08:11:35.161Z,10.25
2017-12-20T08:14:02.857Z,10.18
2017-12-20T08:16:30.370Z,11.65
2017-12-20T08:18:57.955Z,12.25
2017-12-20T08:21:25.692Z,10.50
2017-12-20T08:23:53.245Z,10.48
2017-12-20T08:26:20.745Z,9.77
2017-12-20T08:28:48.285Z,10.10
2017-12-20T08:31:15.810Z,11.48
2017-12-20T08:33:43.324Z,10.45
2017-12-20T08:36:10.865Z,11.88
2017-12-20T08:38:38.396Z,10.85
2017-12-20T08:41:05.902Z,10.77
2017-12-20T08:43:33.813Z,11.75
2017-12-20T08:46:01.311Z,9.85
2017-12-20T08:48:28.821Z,9.15
2017-12-20T08:50:56.408Z,9.82
2017-12-20T08:53:23.955Z,8.93
2017-12-20T08:55:51.456Z,9.98
2017-12-20T08:58:18.999Z,8.07
2017-12-20T09:00:46.529Z,7.60
2017-12-20T09:03:14.045Z,8.70
2017-12-20T09:05:41.591Z,8.30
2017-12-20T09:08:09.104Z,9.18
2017-12-20T09:10:36.610Z,7.28
2017-12-20T09:13:04.332Z,8.27
2017-12-20T09:15:31.840Z,7.45
2017-12-20T09:17:59.351Z,10.07
2017-12-20T09:20:27.105Z,8.32
2017-12-20T09:22:54.609Z,8.95
2017-12-20T09:25:22.122Z,8.10
2017-12-20T09:27:49.678Z,7.57
2017-12-20T09:30:17.234Z,7.97
2017-12-20T09:32:44.746Z,6.68
2017-12-20T09:35:12.459Z,6.97
2017-12-20T09:37:39.971Z,6.57
2017-12-20T09:40:07.485Z,6.32
2017-12-20T09:42:35.025Z,5.72
2017-12-20T09:45:02.534Z,6.60
2017-12-20T09:47:30.057Z,4.90
2017-12-20T09:49:57.608Z,5.25
2017-12-20T09:52:25.126Z,4.82
2017-12-20T09:54:52.638Z,5.05
2017-12-20T09:57:20.205Z,4.85
2017-12-20T09:59:47.741Z,4.65
2017-12-20T10:02:15.303Z,5.12
2017-12-20T10:04:42.912Z,5.15
2017-12-20T10:07:10.433Z,5.22
2017-12-20T10:12:10.706Z,5.85
2017-12-20T10:14:38.214Z,5.32
2017-12-20T10:17:05.713Z,4.90
2017-12-20T10:19:33.250Z,6.07
2017-12-20T10:22:01.200Z,5.70
2017-12-20T10:24:28.702Z,6.53
2017-12-20T10:26:56.525Z,5.53
2017-12-20T10:29:24.083Z,5.43
2017-12-20T10:31:51.589Z,6.03
2017-12-20T10:34:19.150Z,5.70
2017-12-20T10:36:46.655Z,6.20
2017-12-20T10:39:14.157Z,6.35
2017-12-20T10:41:41.876Z,5.45
2017-12-20T10:44:09.374Z,5.35
2017-12-20T10:46:36.893Z,6.40
2017-12-20T10:49:04.556Z,5.45
2017-12-20T10:51:32.060Z,5.60
2017-12-20T10:53:59.570Z,5.32
2017-12-20T10:56:27.206Z,5.68
2017-12-20T10:58:54.710Z,5.22
2017-12-20T11:01:22.214Z,5.12
2017-12-20T11:03:50.113Z,5.37
2017-12-20T11:06:17.637Z,5.20
2017-12-20T11:08:45.133Z,4.65
2017-12-20T11:11:12.893Z,5.28
2017-12-20T11:13:40.393Z,6.18
2017-12-20T11:16:07.921Z,5.35
2017-12-20T11:18:35.468Z,5.70
2017-12-20T11:21:02.966Z,5.00
2017-12-20T11:23:30.483Z,4.90
2017-12-20T11:25:58.335Z,6.25
2017-12-20T11:28:25.838Z,4.97
2017-12-20T11:30:53.370Z,5.12
2017-12-20T11:33:20.901Z,4.90
2017-12-20T11:35:48.417Z,4.93
2017-12-20T11:38:15.918Z,4.25
2017-12-20T11:40:44.422Z,4.53
2017-12-20T11:43:12.391Z,4.20
2017-12-20T11:45:39.893Z,4.57
2017-12-20T11:48:07.581Z,4.90
2017-12-20T11:50:35.081Z,4.40
2017-12-20T11:53:02.626Z,5.05
2017-12-20T11:55:30.195Z,4.72
2017-12-20T11:57:57.744Z,5.05
2017-12-20T12:00:25.304Z,4.12
2017-12-20T12:02:52.854Z,5.80
2017-12-20T12:05:20.357Z,5.10
2017-12-20T12:07:47.862Z,4.40
2017-12-20T12:10:15.457Z,5.20
2017-12-20T12:12:42.970Z,4.80
2017-12-20T12:15:10.465Z,4.97
2017-12-20T12:17:38.113Z,4.20
2017-12-20T12:20:05.618Z,3.62
2017-12-20T12:22:33.132Z,4.53
2017-12-20T12:25:00.996Z,4.20
2017-12-20T12:27:28.498Z,4.80
2017-12-20T12:29:56.503Z,5.00
2017-12-20T12:32:24.034Z,4.47
2017-12-20T12:34:51.542Z,4.75
2017-12-20T12:37:19.041Z,4.72
2017-12-20T12:39:46.760Z,6.28
2017-12-20T12:42:14.258Z,5.87
2017-12-20T12:44:41.759Z,4.40
2017-12-20T12:47:09.435Z,4.40
2017-12-20T12:49:36.951Z,4.50
2017-12-20T12:52:04.460Z,4.90
2017-12-20T12:54:32.319Z,4.62
2017-12-20T12:56:59.842Z,5.10
2017-12-20T12:59:27.395Z,4.97
2017-12-20T13:01:55.407Z,5.60
2017-12-20T13:04:22.905Z,5.45
2017-12-20T13:06:50.410Z,5.62
2017-12-20T13:09:17.982Z,5.15
2017-12-20T13:11:45.485Z,5.10
2017-12-20T13:14:12.996Z,5.53
2017-12-20T13:16:40.760Z,5.47
2017-12-20T13:19:08.253Z,5.22
2017-12-20T13:21:35.776Z,5.15
2017-12-20T13:24:03.540Z,5.22
2017-12-20T13:26:31.045Z,6.18
2017-12-20T13:28:58.553Z,6.35
2017-12-20T13:31:26.114Z,6.05
2017-12-20T13:33:53.674Z,6.50
2017-12-20T13:36:21.179Z,6.93
2017-12-20T13:38:48.894Z,6.07
2017-12-20T13:41:16.406Z,7.12
2017-12-20T13:43:43.922Z,7.18
2017-12-20T13:46:11.646Z,6.80
2017-12-20T13:48:39.154Z,6.50
2017-12-20T13:51:06.718Z,6.45
2017-12-20T13:53:34.282Z,5.55
2017-12-20T13:56:01.785Z,6.53
2017-12-20T13:58:29.409Z,5.53
2017-12-20T14:00:57.096Z,4.90
2017-12-20T14:03:24.606Z,4.90
2017-12-20T14:05:52.117Z,5.45
2017-12-20T14:08:19.705Z,6.82
2017-12-20T14:10:47.366Z,6.05
2017-12-20T14:13:15.134Z,5.47
2017-12-20T14:15:43.206Z,6.20
2017-12-20T14:18:10.806Z,5.53
2017-12-20T14:20:38.361Z,5.15
2017-12-20T14:23:06.084Z,5.55
2017-12-20T14:25:33.642Z,6.65
2017-12-20T14:28:01.202Z,7.32
2017-12-20T14:30:29.068Z,6.75
2017-12-20T14:32:56.574Z,6.32
2017-12-20T14:35:24.074Z,6.95
2017-12-20T14:37:51.847Z,7.80
2017-12-20T14:40:19.350Z,7.20
2017-12-20T14:42:46.863Z,7.93
2017-12-20T14:45:14.624Z,7.60
2017-12-20T14:47:42.098Z,7.90
2017-12-20T14:50:09.607Z,7.97
2017-12-20T14:52:37.386Z,8.18
2017-12-20T14:55:04.893Z,7.03
2017-12-20T14:57:32.482Z,7.53
2017-12-20T15:00:00.072Z,7.85
2017-12-20T15:02:27.756Z,7.55
2017-12-20T15:04:55.612Z,8.02
2017-12-20T15:07:23.409Z,7.10
2017-12-20T15:09:51.036Z,6.93
2017-12-20T15:12:18.582Z,7.70
2017-12-20T15:14:46.309Z,7.57
2017-12-20T15:17:13.797Z,9.05
2017-12-20T15:19:40.595Z,8.40
2017-12-20T15:22:09.241Z,8.20
2017-12-20T15:24:36.822Z,8.65
2017-12-20T15:27:04.337Z,9.07
2017-12-20T15:29:32.228Z,9.20
2017-12-20T15:31:59.785Z,8.50
2017-12-20T15:34:27.309Z,8.70
2017-12-20T15:36:54.976Z,7.80
2017-12-20T15:39:22.497Z,9.85
2017-12-20T15:41:50.019Z,8.15
2017-12-20T15:44:18.093Z,9.60
2017-12-20T15:46:45.602Z,9.05
2017-12-20T15:49:13.107Z,9.00
2017-12-20T15:51:40.771Z,8.95
2017-12-20T15:54:08.278Z,9.82
2017-12-20T15:56:35.827Z,9.40
2017-12-20T15:59:03.650Z,8.95
2017-12-20T16:01:31.416Z,8.65
2017-12-20T16:03:59.179Z,8.15
2017-12-20T16:06:26.793Z,7.80
2017-12-20T16:08:55.730Z,7.12
2017-12-20T16:11:23.233Z,8.63
2017-12-20T16:13:51.478Z,8.10
2017-12-20T16:16:19.125Z,7.55
2017-12-20T16:18:46.696Z,9.32
2017-12-20T16:21:14.653Z,14.35
2017-12-20T16:23:42.174Z,9.65
2017-12-20T16:26:10.282Z,8.23
2017-12-20T16:28:38.456Z,8.43
2017-12-20T16:31:06.529Z,7.93
2017-12-20T16:33:34.597Z,7.37
2017-12-20T16:36:03.400Z,8.68
2017-12-20T16:38:31.355Z,8.68
2017-12-20T16:40:59.222Z,8.52
2017-12-20T16:43:27.573Z,8.60
2017-12-20T16:45:55.465Z,8.73
2017-12-20T16:48:24.266Z,10.75
2017-12-20T16:50:52.336Z,10.48
2017-12-20T16:53:31.990Z,8.60
2017-12-20T16:55:59.940Z,9.70
2017-12-20T16:58:27.803Z,8.25
2017-12-20T17:00:55.577Z,8.48
2017-12-20T17:03:24.172Z,9.43
2017-12-20T17:05:51.941Z,8.70
2017-12-20T17:08:19.779Z,8.68
2017-12-20T17:10:47.853Z,10.07
2017-12-20T17:13:15.615Z,10.00
2017-12-20T17:15:43.397Z,10.18
2017-12-20T17:18:11.099Z,7.78
2017-12-20T17:20:38.922Z,8.80
2017-12-20T17:23:06.792Z,7.20
2017-12-20T17:25:34.637Z,7.93
2017-12-20T17:28:02.403Z,8.25
2017-12-20T17:30:30.166Z,9.55
2017-12-20T17:32:58.135Z,9.43
2017-12-20T17:35:25.908Z,10.07
2017-12-20T17:37:53.765Z,11.50
2017-12-20T17:40:21.948Z,9.32
2017-12-20T17:42:49.896Z,9.65
2017-12-20T17:45:17.534Z,9.70
2017-12-20T17:47:47.174Z,9.95
2017-12-20T17:50:15.059Z,12.95
2017-12-20T17:52:42.818Z,11.32
2017-12-20T17:55:11.125Z,9.60
2017-12-20T17:57:38.949Z,10.02
2017-12-20T18:00:12.048Z,9.95
2017-12-20T18:02:39.781Z,11.82
2017-12-20T18:05:08.145Z,12.57
2017-12-20T18:07:36.008Z,15.10
2017-12-20T18:10:03.713Z,13.00
2017-12-20T18:12:31.676Z,12.77
2017-12-20T18:14:59.646Z,11.93
2017-12-20T18:17:27.307Z,9.88
2017-12-20T18:19:55.071Z,12.43
2017-12-20T18:22:22.956Z,10.65
2017-12-20T18:24:50.756Z,10.50
2017-12-20T18:27:18.582Z,11.18
2017-12-20T18:29:46.447Z,11.65
2017-12-20T18:32:14.099Z,9.90
2017-12-20T18:34:42.009Z,12.02
2017-12-20T18:37:09.932Z,10.75
2017-12-20T18:39:38.908Z,11.35
2017-12-20T18:42:08.009Z,11.55
2017-12-20T18:44:36.921Z,10.70
2017-12-20T18:47:05.081Z,12.18
2017-12-20T18:49:33.020Z,13.43
2017-12-20T18:52:02.456Z,11.32
2017-12-20T18:54:30.526Z,11.52
2017-12-20T18:56:58.408Z,12.63
2017-12-20T18:59:26.361Z,10.65
2017-12-20T19:01:54.226Z,11.75
2017-12-20T19:04:22.114Z,11.75
2017-12-20T19:06:50.340Z,10.73
2017-12-20T19:09:20.285Z,12.07
2017-12-20T19:11:48.591Z,11.65
2017-12-20T19:14:16.665Z,12.27
2017-12-20T19:16:45.213Z,12.40
2017-12-20T19:19:13.000Z,12.15
2017-12-20T19:21:41.073Z,12.25
2017-12-20T19:24:09.016Z,13.68
2017-12-20T19:26:36.883Z,11.20
2017-12-20T19:29:05.074Z,11.50
2017-12-20T19:31:32.877Z,11.07
2017-12-20T19:34:00.587Z,10.35
2017-12-20T19:36:28.561Z,12.35
2017-12-20T19:38:56.427Z,12.65
2017-12-20T19:41:24.247Z,10.40
2017-12-20T19:43:52.153Z,10.20
2017-12-20T19:46:19.916Z,11.45
2017-12-20T19:48:47.747Z,10.90
2017-12-20T19:51:15.679Z,9.73
2017-12-20T19:53:43.925Z,12.37
2017-12-20T19:56:11.902Z,11.05
2017-12-20T19:58:39.937Z,11.40
2017-12-20T20:01:07.973Z,11.35
2017-12-20T20:03:35.903Z,10.68
2017-12-20T20:06:04.383Z,11.75
2017-12-20T20:08:32.454Z,11.88
2017-12-20T20:11:00.630Z,12.90
2017-12-20T20:13:28.392Z,9.20
2017-12-20T20:15:56.565Z,11.73
2017-12-20T20:18:24.126Z,10.98
2017-12-20T20:20:52.065Z,11.43
2017-12-20T20:23:19.652Z,11.43
2017-12-20T20:25:47.414Z,12.60
2017-12-20T20:28:15.089Z,12.02
2017-12-20T20:30:43.139Z,10.73
2017-12-20T20:33:11.741Z,11.32
2017-12-20T20:35:39.910Z,11.30
2017-12-20T20:38:08.195Z,9.60
2017-12-20T20:40:35.954Z,12.27
2017-12-20T20:43:03.915Z,11.02
2017-12-20T20:45:31.576Z,16.90
2017-12-20T20:47:59.356Z,11.45
2017-12-20T20:50:27.796Z,11.15
2017-12-20T20:52:57.334Z,11.68
2017-12-20T20:55:25.396Z,10.63
2017-12-20T20:57:55.016Z,10.98
2017-12-20T21:00:23.193Z,11.55
2017-12-20T21:02:51.839Z,10.27
2017-12-20T21:05:20.741Z,10.27
2017-12-20T21:07:48.619Z,9.65
2017-12-20T21:10:23.677Z,11.77
2017-12-20T21:12:51.964Z,9.38
2017-12-20T21:15:19.796Z,9.90
2017-12-20T21:17:47.970Z,9.75
2017-12-20T21:20:15.836Z,9.95
2017-12-20T21:22:43.614Z,10.18
2017-12-20T21:25:12.084Z,8.95
2017-12-20T21:27:40.561Z,9.45
2017-12-20T21:30:08.736Z,10.68
2017-12-20T21:32:37.144Z,11.73
2017-12-20T21:35:04.876Z,10.05
2017-12-20T21:37:33.357Z,11.15
2017-12-20T21:40:01.730Z,15.98
2017-12-20T21:42:30.082Z,10.10
2017-12-20T21:44:58.083Z,11.20
2017-12-20T21:47:26.460Z,10.65
2017-12-20T21:49:54.445Z,11.00
2017-12-20T21:52:22.279Z,9.05
2017-12-20T21:54:50.566Z,9.43
2017-12-20T21:57:18.538Z,10.10
2017-12-20T21:59:46.329Z,10.25
2017-12-20T22:02:14.203Z,9.65
2017-12-20T22:04:42.072Z,10.65
2017-12-20T22:07:09.819Z,10.40
2017-12-20T22:09:37.547Z,8.45
2017-12-20T22:12:05.057Z,9.90
2017-12-20T22:14:32.582Z,9.70
2017-12-20T22:17:01.165Z,9.07
2017-12-20T22:19:28.827Z,8.98
2017-12-20T22:21:56.398Z,9.95
2017-12-20T22:24:24.660Z,9.15
2017-12-20T22:26:52.169Z,8.88
2017-12-20T22:29:20.087Z,8.13
2017-12-20T22:31:48.063Z,9.50
2017-12-20T22:34:16.490Z,9.35
2017-12-20T22:36:45.118Z,9.77
2017-12-20T22:39:12.882Z,9.23
2017-12-20T22:41:40.385Z,9.48
2017-12-20T22:44:08.545Z,9.02
2017-12-20T22:46:35.682Z,9.25
2017-12-20T22:49:04.097Z,9.00
2017-12-20T22:51:31.605Z,8.60
2017-12-20T22:53:59.140Z,9.23
2017-12-20T22:56:26.658Z,9.10
2017-12-20T22:58:54.218Z,8.55
2017-12-20T23:01:21.857Z,8.70
2017-12-20T23:03:49.446Z,9.10
2017-12-20T23:06:17.057Z,8.60
2017-12-20T23:08:45.450Z,10.10
2017-12-20T23:11:12.995Z,8.70
2017-12-20T23:13:40.501Z,8.77
2017-12-20T23:16:09.034Z,9.07
2017-12-20T23:18:36.536Z,8.43
2017-12-20T23:21:04.040Z,10.10
2017-12-20T23:23:31.608Z,8.38
2017-12-20T23:25:59.118Z,9.68
2017-12-20T23:28:26.625Z,9.68
2017-12-20T23:30:55.019Z,9.00
2017-12-20T23:33:22.562Z,9.50
2017-12-20T23:35:50.069Z,8.88
2017-12-20T23:38:18.270Z,9.32
2017-12-20T23:40:45.781Z,8.43
2017-12-20T23:43:13.658Z,9.65
2017-12-20T23:45:42.071Z,9.45
2017-12-20T23:48:09.574Z,10.73
2017-12-20T23:50:37.087Z,8.75
2017-12-20T23:53:04.888Z,10.18
2017-12-20T23:55:32.401Z,10.95
2017-12-20T23:57:59.909Z,10.07
